Latest Coastal Weather Observations for Alva Beach

IDQ60701

Issued at 5:21 am EST Friday 22 September 2017 (issued every 10 minutes, with the page automatically refreshed every 10 minutes)

About coastal observations | Map of coastal stations | Coastal observations for QLD | Marine services | Other Formats
Station Details ID: 033295 Name: ALVA BEACH Lat: -19.46 Lon: 147.48 Height: 7.5 m
Data from the previous 72 hours. | See also: Recent months at Alva Beach
Date/Time
EST
Temp
°C
Wind Pressure Rain since
9am
mm
Weather Cloud Vis
km
Sea
Height
m
Swell
Dir  Spd
kts
Gust
kts
hPa Trend Height
m
Period
s
Dir
22/05:00am 23.2 ENE 9 11 1015.8 - 0.0 - - - - - - -
22/04:30am 23.2 ENE 10 13 1015.4 - 0.0 - - - - - - -
22/04:00am 23.2 NE 12 14 1015.0 - 0.0 - - - - - - -
22/03:30am 23.2 ENE 13 15 1014.9 - 0.0 - - - - - - -
22/03:00am 23.3 ENE 12 13 1015.0 - 0.0 - - - - - - -
22/02:30am 23.3 ENE 11 14 1015.4 - 0.0 - - - - - - -
22/02:00am 23.5 ENE 11 13 1015.5 - 0.0 - - - - - - -
22/01:30am 23.5 ENE 11 14 1015.8 - 0.0 - - - - - - -
22/01:00am 23.6 ENE 12 13 1015.7 - 0.0 - - - - - - -
22/12:30am 23.6 ENE 12 14 1015.8 - 0.0 - - - - - - -
22/12:00am 23.7 NE 11 13 1016.0 - 0.0 - - - - - - -
 
Date/Time
EST
Temp
°C
Wind Pressure Rain since
9am
mm
Weather Cloud Vis
km
Sea
Height
m
Swell
Dir  Spd
kts
Gust
kts
hPa Trend Height
m
Period
s
Dir
21/11:30pm 23.6 ENE 12 14 1016.5 - 0.0 - - - - - - -
21/11:00pm 23.7 NE 10 12 1017.1 - 0.0 - - - - - - -
21/10:30pm 23.7 NE 8 10 1017.3 - 0.0 - - - - - - -
21/10:00pm 23.7 NE 8 9 1017.2 - 0.0 - - - - - - -
21/09:30pm 23.9 NE 11 13 1016.8 - 0.0 - - - - - - -
21/09:00pm 24.0 NE 10 12 1016.7 - 0.0 - - - - - - -
21/08:30pm 24.0 NE 9 11 1016.6 - 0.0 - - - - - - -
21/08:00pm 23.9 NE 10 12 1016.4 - 0.0 - - - - - - -
21/07:30pm 24.0 NE 10 13 1016.3 - 0.0 - - - - - - -
21/07:00pm 23.8 NE 11 13 1015.9 - 0.0 - - - - - - -
21/06:30pm 23.7 NE 10 12 1015.5 - 0.0 - - - - - - -
21/06:00pm 23.8 NE 10 12 1015.2 - 0.0 - - - - - - -
21/05:30pm 24.2 NE 10 13 1014.8 - 0.0 - - - - - - -
21/05:00pm 24.8 NE 10 13 1014.5 - 0.0 - - - - - - -
21/04:30pm 24.9 NE 10 13 1014.3 - 0.0 - - - - - - -
21/04:00pm 24.8 NE 9 12 1014.2 - 0.0 - - - - - - -
21/03:30pm 25.3 NE 8 10 1014.3 - 0.0 - - - - - - -
21/03:00pm 25.9 NE 8 11 1014.3 - 0.0 - - - - - - -
21/02:30pm 25.4 NE 8 10 1014.6 - 0.0 - - - - - - -
21/02:00pm 25.9 NE 7 10 1014.9 - 0.0 - - - - - - -
21/01:30pm 25.8 NE 7 9 1015.4 - 0.0 - - - - - - -
21/01:00pm 25.8 ENE 6 8 1015.7 - 0.0 - - - - - - -
21/12:30pm 26.1 NE 6 8 1016.2 - 0.0 - - - - - - -
21/12:00pm 26.2 NE 7 9 1016.6 - 0.0 - - - - - - -
21/11:30am 25.6 NE 7 9 1017.0 - 0.0 - - - - - - -
21/11:00am 25.9 NE 7 9 1017.3 - 0.0 - - - - - - -
21/10:30am 25.2 ENE 7 9 1017.5 - 0.0 - - - - - - -
21/10:00am 25.5 ENE 7 8 1017.6 - 0.0 - - - - - - -
21/09:30am 25.3 ENE 5 6 1017.7 - 0.0 - - - - - - -
21/09:00am 24.8 ENE 5 6 1017.8 - 0.0 - - - - - - -
21/08:30am 24.4 ENE 3 5 1017.6 - 0.0 - - - - - - -
21/08:00am 22.8 ENE 3 5 1017.4 - 0.0 - - - - - - -
21/07:30am 21.0 ENE 5 6 1017.2 - 0.0 - - - - - - -
21/07:00am 19.1 ENE 5 6 1016.7 - 0.0 - - - - - - -
21/06:30am 17.9 ENE 5 6 1016.4 - 0.0 - - - - - - -
21/06:00am 17.7 ENE 4 5 1016.1 - 0.0 - - - - - - -
21/05:30am 18.1 ENE 5 6 1015.7 - 0.0 - - - - - - -
21/05:00am 18.5 ENE 4 5 1015.5 - 0.0 - - - - - - -
21/04:30am 18.8 ENE 3 5 1015.3 - 0.0 - - - - - - -
21/04:00am 19.6 ENE 4 5 1015.1 - 0.0 - - - - - - -
21/03:30am 20.8 ENE 6 8 1015.0 - 0.0 - - - - - - -
21/03:00am 22.0 ENE 6 7 1015.0 - 0.0 - - - - - - -
21/02:30am 22.3 NE 7 8 1015.2 - 0.0 - - - - - - -
21/02:00am 22.3 NE 5 8 1015.7 - 0.0 - - - - - - -
21/01:30am 22.8 NE 7 9 1015.9 - 0.0 - - - - - - -
21/01:00am 22.8 ENE 7 9 1016.1 - 0.0 - - - - - - -
21/12:30am 22.9 ENE 7 8 1016.3 - 0.0 - - - - - - -
21/12:00am 23.1 ENE 7 8 1016.5 - 0.0 - - - - - - -
 
Date/Time
EST
Temp
°C
Wind Pressure Rain since
9am
mm
Weather Cloud Vis
km
Sea
Height
m
Swell
Dir  Spd
kts
Gust
kts
hPa Trend Height
m
Period
s
Dir
20/11:30pm 23.1 NE 7 9 1016.6 - 0.0 - - - - - - -
20/11:00pm 23.2 ENE 8 9 1016.7 - 0.0 - - - - - - -
20/10:30pm 23.3 ENE 9 10 1016.7 - 0.0 - - - - - - -
20/10:00pm 23.4 ENE 9 11 1016.6 - 0.0 - - - - - - -
20/09:30pm 23.4 ENE 9 11 1016.5 - 0.0 - - - - - - -
20/09:00pm 23.6 ENE 11 12 1016.3 - 0.0 - - - - - - -
20/08:30pm 23.5 ENE 11 13 1016.1 - 0.0 - - - - - - -
20/08:00pm 23.7 ENE 10 12 1015.8 - 0.0 - - - - - - -
20/07:30pm 23.7 NE 11 13 1015.7 - 0.0 - - - - - - -
20/07:00pm 23.5 ENE 13 15 1015.4 - 0.0 - - - - - - -
20/06:30pm 23.7 ENE 14 16 1015.0 - 0.0 - - - - - - -
20/06:00pm 23.9 NE 14 16 1014.5 - 0.0 - - - - - - -
20/05:30pm 24.1 NE 14 16 1014.2 - 0.0 - - - - - - -
20/05:00pm 24.4 NE 14 17 1014.0 - 0.0 - - - - - - -
20/04:30pm 24.6 NE 13 16 1013.7 - 0.0 - - - - - - -
20/04:00pm 24.8 NE 13 15 1013.7 - 0.0 - - - - - - -
20/03:30pm 24.9 NNE 13 15 1013.8 - 0.0 - - - - - - -
20/03:00pm 24.8 NE 14 16 1013.9 - 0.0 - - - - - - -
20/02:30pm 25.3 NE 14 17 1014.2 - 0.0 - - - - - - -
20/02:00pm 25.5 NE 12 15 1014.4 - 0.0 - - - - - - -
20/01:30pm 26.0 NE 12 14 1014.9 - 0.0 - - - - - - -
20/01:00pm 25.5 NE 11 13 1015.4 - 0.0 - - - - - - -
20/12:30pm 25.7 ENE 11 13 1015.7 - 0.0 - - - - - - -
20/12:00pm 24.7 E 8 10 1016.1 - 0.0 - - - - - - -
20/11:30am 24.7 E 8 11 1016.7 - 0.0 - - - - - - -
20/11:00am 24.3 E 7 10 1017.3 - 0.0 - - - - - - -
20/10:30am 25.0 E 8 10 1017.6 - 0.0 - - - - - - -
20/10:00am 25.9 E 6 10 1017.9 - 0.0 - - - - - - -
20/09:30am 25.8 ESE 5 9 1018.1 - 0.0 - - - - - - -
20/09:00am 25.1 ESE 6 9 1018.2 - 1.4 Recent precip. - - - - - -
20/08:30am 24.2 S 4 7 1018.4 - 1.2 - - - - - - -
20/08:00am 22.8 S 4 8 1018.1 - 1.2 - - - - - - -
20/07:30am 20.4 SSW 5 6 1017.8 - 1.2 - - - - - - -
20/07:00am 19.4 SSW 4 5 1017.9 - 1.2 - - - - - - -
20/06:30am 19.4 SSW 4 6 1017.5 - 1.2 - - - - - - -
20/06:00am 19.4 SSW 5 7 1017.0 - 1.2 - - - - - - -
20/05:30am 19.5 SW 5 7 1016.7 - 1.2 - - - - - - -
20/05:00am 19.6 SW 4 6 1016.4 - 1.2 - - - - - - -
20/04:30am 19.7 SW 5 7 1016.2 - 1.2 - - - - - - -
20/04:00am 20.0 SW 4 4 1016.2 - 1.2 - - - - - - -
20/03:30am 20.1 SW 4 5 1016.4 - 1.2 - - - - - - -
20/03:00am 20.1 SW 4 6 1016.4 - 1.2 - - - - - - -
20/02:30am 20.4 SW 2 4 1016.8 - 1.2 - - - - - - -
20/02:00am 20.8 ESE 1 6 1017.1 - 1.2 - - - - - - -
20/01:30am 21.2 ESE 1 4 1017.3 - 1.2 - - - - - - -
20/01:00am 21.5 ESE 3 6 1017.3 - 1.2 - - - - - - -
20/12:30am 22.4 ESE 5 9 1018.1 - 1.2 - - - - - - -
20/12:00am 22.4 ESE 6 10 1018.4 - 1.2 - - - - - - -
 
Date/Time
EST
Temp
°C
Wind Pressure Rain since
9am
mm
Weather Cloud Vis
km
Sea
Height
m
Swell
Dir  Spd
kts
Gust
kts
hPa Trend Height
m
Period
s
Dir
19/11:30pm 22.4 ESE 7 12 1018.5 - 1.2 - - - - - - -
19/11:00pm 22.7 E 8 12 1018.7 - 1.2 - - - - - - -
19/10:30pm 22.6 E 9 12 1019.0 - 1.2 - - - - - - -
19/10:00pm 22.6 ENE 11 14 1019.2 - 1.2 - - - - - - -
19/09:30pm 22.5 E 10 13 1019.1 - 1.2 - - - - - - -
19/09:00pm 22.6 E 10 14 1019.1 - 1.2 - - - - - - -
19/08:30pm 22.5 E 10 14 1018.7 - 1.2 - - - - - - -
19/08:00pm 22.2 ESE 7 12 1018.6 - 1.2 - - - - - - -
19/07:30pm 22.3 E 11 16 1018.4 - 1.2 - - - - - - -
19/07:00pm 22.1 E 9 14 1018.1 - 1.2 - - - - - - -
19/06:30pm 22.3 E 8 12 1018.4 - 1.2 - - - - - - -
19/06:00pm 22.2 E 9 13 1018.3 - 1.2 - - - - - - -
19/05:30pm 22.4 E 9 11 1017.9 - 1.2 - - - - - - -
19/05:00pm 22.6 E 8 13 1017.6 - 1.2 - - - - - - -
19/04:30pm 22.4 E 12 15 1016.5 - 1.2 - - - - - - -
19/04:00pm 22.0 E 10 14 1016.5 - 1.2 - - - - - - -
19/03:30pm 21.9 E 8 13 1017.1 - 1.2 - - - - - - -
19/03:00pm 22.2 ESE 7 10 1017.6 - 0.8 Recent precip. - - - - - -
19/02:30pm 22.2 SE 8 12 1017.7 - 0.4 - - - - - - -
19/02:00pm 22.5 ESE 8 13 1018.0 - 0.0 - - - - - - -
19/01:30pm 23.1 ESE 9 14 1018.2 - 0.0 - - - - - - -
19/01:00pm 23.3 ESE 10 16 1018.7 - 0.0 - - - - - - -
19/12:30pm 23.6 ESE 10 14 1019.1 - 0.0 - - - - - - -
19/12:00pm 23.1 SE 10 16 1019.4 - 0.0 - - - - - - -
19/11:30am 22.8 ESE 10 17 1020.0 - 0.0 - - - - - - -
19/11:00am 23.6 ESE 11 16 1020.3 - 0.0 - - - - - - -
19/10:30am 24.2 ESE 10 16 1020.6 - 0.0 - - - - - - -
19/10:00am 24.2 ESE 11 18 1020.8 - 0.0 - - - - - - -
19/09:30am 23.6 SE 12 19 1021.0 - 0.0 - - - - - - -
19/09:00am 23.4 ESE 11 17 1021.1 - 0.0 - - - - - - -
19/08:30am 23.1 SE 11 17 1021.1 - 0.0 - - - - - - -
19/08:00am 23.0 ESE 12 19 1020.5 - 0.0 - - - - - - -
19/07:30am 22.5 ESE 11 19 1020.1 - 0.0 - - - - - - -
19/07:00am 22.5 ESE 12 19 1019.7 - 0.0 - - - - - - -
19/06:30am 22.4 ESE 11 18 1019.3 - 0.0 - - - - - - -
19/06:00am 22.4 ESE 12 17 1019.0 - 0.0 - - - - - - -
19/05:30am 22.3 ESE 11 19 1018.8 - 0.0 - - - - - - -

Other Formats:

Comma delimited format used in spreadsheet applications
http://www.bom.gov.au/fwo/IDQ60701/IDQ60701.95296.axf

JavaScript Object Notation format (JSON) in row-major order
http://www.bom.gov.au/fwo/IDQ60701/IDQ60701.95296.json